sensor_id;sensor_type;location;lat;lon;timestamp;P1;durP1;ratioP1;P2;durP2;ratioP2
12222;SDS011;6174;49.058;8.524;2022-08-21T00:01:26;2.60;;;2.20;;
12222;SDS011;6174;49.058;8.524;2022-08-21T00:03:55;3.37;;;2.13;;
12222;SDS011;6174;49.058;8.524;2022-08-21T00:06:22;2.90;;;2.10;;
12222;SDS011;6174;49.058;8.524;2022-08-21T00:08:49;3.43;;;2.27;;
12222;SDS011;6174;49.058;8.524;2022-08-21T00:11:16;2.80;;;2.10;;
12222;SDS011;6174;49.058;8.524;2022-08-21T00:13:44;2.33;;;2.13;;
12222;SDS011;6174;49.058;8.524;2022-08-21T00:16:10;3.77;;;2.10;;
12222;SDS011;6174;49.058;8.524;2022-08-21T00:18:39;2.43;;;2.23;;
12222;SDS011;6174;49.058;8.524;2022-08-21T00:21:06;3.00;;;2.20;;
12222;SDS011;6174;49.058;8.524;2022-08-21T00:23:33;4.27;;;2.30;;
12222;SDS011;6174;49.058;8.524;2022-08-21T00:26:00;3.10;;;2.50;;
12222;SDS011;6174;49.058;8.524;2022-08-21T00:28:27;3.47;;;2.20;;
12222;SDS011;6174;49.058;8.524;2022-08-21T00:30:53;2.73;;;2.17;;
12222;SDS011;6174;49.058;8.524;2022-08-21T00:33:21;3.87;;;2.40;;
12222;SDS011;6174;49.058;8.524;2022-08-21T00:35:50;2.60;;;2.23;;
12222;SDS011;6174;49.058;8.524;2022-08-21T00:38:17;3.00;;;2.40;;
12222;SDS011;6174;49.058;8.524;2022-08-21T00:40:46;2.83;;;2.43;;
12222;SDS011;6174;49.058;8.524;2022-08-21T00:43:15;3.00;;;2.00;;
12222;SDS011;6174;49.058;8.524;2022-08-21T00:45:44;5.00;;;2.30;;
12222;SDS011;6174;49.058;8.524;2022-08-21T00:48:11;2.93;;;2.23;;
12222;SDS011;6174;49.058;8.524;2022-08-21T00:50:40;4.50;;;2.50;;
12222;SDS011;6174;49.058;8.524;2022-08-21T00:53:11;2.90;;;2.47;;
12222;SDS011;6174;49.058;8.524;2022-08-21T00:55:40;3.00;;;2.30;;
12222;SDS011;6174;49.058;8.524;2022-08-21T00:58:08;4.00;;;2.20;;
12222;SDS011;6174;49.058;8.524;2022-08-21T01:00:39;3.20;;;2.10;;
12222;SDS011;6174;49.058;8.524;2022-08-21T01:03:09;2.83;;;2.20;;
12222;SDS011;6174;49.058;8.524;2022-08-21T01:05:38;2.80;;;2.20;;
12222;SDS011;6174;49.058;8.524;2022-08-21T01:08:05;3.83;;;2.47;;
12222;SDS011;6174;49.058;8.524;2022-08-21T01:10:35;3.17;;;2.40;;
12222;SDS011;6174;49.058;8.524;2022-08-21T01:13:03;2.60;;;2.33;;
12222;SDS011;6174;49.058;8.524;2022-08-21T01:15:32;3.17;;;2.47;;
12222;SDS011;6174;49.058;8.524;2022-08-21T01:18:01;2.73;;;2.43;;
12222;SDS011;6174;49.058;8.524;2022-08-21T01:20:28;2.33;;;2.10;;
12222;SDS011;6174;49.058;8.524;2022-08-21T01:22:57;3.67;;;2.20;;
12222;SDS011;6174;49.058;8.524;2022-08-21T01:25:24;4.83;;;2.20;;
12222;SDS011;6174;49.058;8.524;2022-08-21T01:27:51;4.30;;;2.40;;
12222;SDS011;6174;49.058;8.524;2022-08-21T01:30:18;4.63;;;2.73;;
12222;SDS011;6174;49.058;8.524;2022-08-21T01:32:48;3.40;;;2.10;;
12222;SDS011;6174;49.058;8.524;2022-08-21T01:35:16;3.17;;;2.30;;
12222;SDS011;6174;49.058;8.524;2022-08-21T01:37:44;3.17;;;2.30;;
12222;SDS011;6174;49.058;8.524;2022-08-21T01:40:14;4.83;;;2.10;;
12222;SDS011;6174;49.058;8.524;2022-08-21T01:42:44;2.93;;;1.93;;
12222;SDS011;6174;49.058;8.524;2022-08-21T01:45:11;3.30;;;2.20;;
12222;SDS011;6174;49.058;8.524;2022-08-21T01:47:39;3.33;;;2.30;;
12222;SDS011;6174;49.058;8.524;2022-08-21T01:50:08;2.33;;;2.00;;
12222;SDS011;6174;49.058;8.524;2022-08-21T01:52:38;3.57;;;2.10;;
12222;SDS011;6174;49.058;8.524;2022-08-21T01:55:05;5.27;;;2.40;;
12222;SDS011;6174;49.058;8.524;2022-08-21T01:57:35;3.93;;;2.33;;
12222;SDS011;6174;49.058;8.524;2022-08-21T02:00:03;3.63;;;2.23;;
12222;SDS011;6174;49.058;8.524;2022-08-21T02:02:31;2.47;;;2.07;;
12222;SDS011;6174;49.058;8.524;2022-08-21T02:04:57;3.47;;;2.30;;
12222;SDS011;6174;49.058;8.524;2022-08-21T02:07:24;2.93;;;2.00;;
12222;SDS011;6174;49.058;8.524;2022-08-21T02:09:51;3.07;;;2.27;;
12222;SDS011;6174;49.058;8.524;2022-08-21T02:12:17;4.73;;;2.40;;
12222;SDS011;6174;49.058;8.524;2022-08-21T02:14:46;3.83;;;2.50;;
12222;SDS011;6174;49.058;8.524;2022-08-21T02:17:12;5.90;;;2.40;;
12222;SDS011;6174;49.058;8.524;2022-08-21T02:19:39;3.60;;;2.30;;
12222;SDS011;6174;49.058;8.524;2022-08-21T02:22:06;2.50;;;2.30;;
12222;SDS011;6174;49.058;8.524;2022-08-21T02:24:33;3.73;;;2.27;;
12222;SDS011;6174;49.058;8.524;2022-08-21T02:27:01;2.70;;;2.43;;
12222;SDS011;6174;49.058;8.524;2022-08-21T02:29:28;3.17;;;2.23;;
12222;SDS011;6174;49.058;8.524;2022-08-21T02:31:56;2.57;;;2.37;;
12222;SDS011;6174;49.058;8.524;2022-08-21T02:34:23;2.30;;;2.10;;
12222;SDS011;6174;49.058;8.524;2022-08-21T02:36:50;3.57;;;2.30;;
12222;SDS011;6174;49.058;8.524;2022-08-21T02:39:16;4.00;;;2.33;;
12222;SDS011;6174;49.058;8.524;2022-08-21T02:41:43;4.30;;;2.53;;
12222;SDS011;6174;49.058;8.524;2022-08-21T02:44:10;2.43;;;2.17;;
12222;SDS011;6174;49.058;8.524;2022-08-21T02:46:37;3.73;;;2.33;;
12222;SDS011;6174;49.058;8.524;2022-08-21T02:49:05;3.60;;;2.13;;
12222;SDS011;6174;49.058;8.524;2022-08-21T02:51:32;4.80;;;2.30;;
12222;SDS011;6174;49.058;8.524;2022-08-21T02:53:58;5.77;;;2.40;;
12222;SDS011;6174;49.058;8.524;2022-08-21T02:56:25;3.40;;;2.37;;
12222;SDS011;6174;49.058;8.524;2022-08-21T02:58:52;2.23;;;1.97;;
12222;SDS011;6174;49.058;8.524;2022-08-21T03:01:19;3.30;;;2.10;;
12222;SDS011;6174;49.058;8.524;2022-08-21T03:03:47;4.23;;;2.70;;
12222;SDS011;6174;49.058;8.524;2022-08-21T03:06:18;4.30;;;2.37;;
12222;SDS011;6174;49.058;8.524;2022-08-21T03:08:46;3.83;;;2.33;;
12222;SDS011;6174;49.058;8.524;2022-08-21T03:11:14;4.83;;;2.40;;
12222;SDS011;6174;49.058;8.524;2022-08-21T03:13:41;2.83;;;2.40;;
12222;SDS011;6174;49.058;8.524;2022-08-21T03:16:08;5.67;;;2.60;;
12222;SDS011;6174;49.058;8.524;2022-08-21T03:18:35;3.20;;;2.37;;
12222;SDS011;6174;49.058;8.524;2022-08-21T03:21:03;4.03;;;2.43;;
12222;SDS011;6174;49.058;8.524;2022-08-21T03:23:32;2.77;;;2.23;;
12222;SDS011;6174;49.058;8.524;2022-08-21T03:25:59;4.30;;;2.50;;
12222;SDS011;6174;49.058;8.524;2022-08-21T03:28:26;3.33;;;2.30;;
12222;SDS011;6174;49.058;8.524;2022-08-21T03:30:53;3.60;;;2.60;;
12222;SDS011;6174;49.058;8.524;2022-08-21T03:33:20;3.63;;;2.40;;
12222;SDS011;6174;49.058;8.524;2022-08-21T03:35:56;5.70;;;2.70;;
12222;SDS011;6174;49.058;8.524;2022-08-21T03:38:26;3.47;;;2.20;;
12222;SDS011;6174;49.058;8.524;2022-08-21T03:40:55;3.10;;;2.40;;
12222;SDS011;6174;49.058;8.524;2022-08-21T03:43:22;3.47;;;2.20;;
12222;SDS011;6174;49.058;8.524;2022-08-21T03:45:49;2.47;;;2.27;;
12222;SDS011;6174;49.058;8.524;2022-08-21T03:48:16;3.03;;;2.30;;
12222;SDS011;6174;49.058;8.524;2022-08-21T03:50:43;3.33;;;2.50;;
12222;SDS011;6174;49.058;8.524;2022-08-21T03:53:12;3.40;;;2.30;;
12222;SDS011;6174;49.058;8.524;2022-08-21T03:55:40;2.77;;;2.30;;
12222;SDS011;6174;49.058;8.524;2022-08-21T03:58:09;2.77;;;2.40;;
12222;SDS011;6174;49.058;8.524;2022-08-21T04:00:35;4.20;;;2.40;;
12222;SDS011;6174;49.058;8.524;2022-08-21T04:03:03;3.50;;;2.40;;
12222;SDS011;6174;49.058;8.524;2022-08-21T04:05:29;2.93;;;2.27;;
12222;SDS011;6174;49.058;8.524;2022-08-21T04:07:57;3.67;;;2.70;;
12222;SDS011;6174;49.058;8.524;2022-08-21T04:10:25;4.77;;;2.90;;
12222;SDS011;6174;49.058;8.524;2022-08-21T04:12:53;2.73;;;2.40;;
12222;SDS011;6174;49.058;8.524;2022-08-21T04:15:22;3.47;;;2.23;;
12222;SDS011;6174;49.058;8.524;2022-08-21T04:17:50;3.70;;;2.50;;
12222;SDS011;6174;49.058;8.524;2022-08-21T04:20:17;3.63;;;2.50;;
12222;SDS011;6174;49.058;8.524;2022-08-21T04:22:46;4.87;;;2.73;;
12222;SDS011;6174;49.058;8.524;2022-08-21T04:25:14;3.80;;;2.60;;
12222;SDS011;6174;49.058;8.524;2022-08-21T04:27:43;2.67;;;2.40;;
12222;SDS011;6174;49.058;8.524;2022-08-21T04:30:11;2.77;;;2.30;;
12222;SDS011;6174;49.058;8.524;2022-08-21T04:32:43;2.83;;;2.57;;
12222;SDS011;6174;49.058;8.524;2022-08-21T04:35:11;3.40;;;2.67;;
12222;SDS011;6174;49.058;8.524;2022-08-21T04:37:38;5.47;;;3.00;;
12222;SDS011;6174;49.058;8.524;2022-08-21T04:40:05;5.10;;;3.37;;
12222;SDS011;6174;49.058;8.524;2022-08-21T04:42:40;4.43;;;2.60;;
12222;SDS011;6174;49.058;8.524;2022-08-21T04:45:09;4.93;;;2.70;;
12222;SDS011;6174;49.058;8.524;2022-08-21T04:47:40;4.50;;;2.60;;
12222;SDS011;6174;49.058;8.524;2022-08-21T04:50:08;3.07;;;2.57;;
12222;SDS011;6174;49.058;8.524;2022-08-21T04:52:35;3.93;;;2.70;;
12222;SDS011;6174;49.058;8.524;2022-08-21T04:55:02;3.43;;;2.70;;
12222;SDS011;6174;49.058;8.524;2022-08-21T04:57:30;3.20;;;2.40;;
12222;SDS011;6174;49.058;8.524;2022-08-21T04:59:56;3.53;;;2.60;;
12222;SDS011;6174;49.058;8.524;2022-08-21T05:02:24;3.40;;;2.90;;
12222;SDS011;6174;49.058;8.524;2022-08-21T05:04:52;4.33;;;2.37;;
12222;SDS011;6174;49.058;8.524;2022-08-21T05:07:22;5.03;;;3.17;;
12222;SDS011;6174;49.058;8.524;2022-08-21T05:09:53;4.30;;;2.90;;
12222;SDS011;6174;49.058;8.524;2022-08-21T05:12:20;2.90;;;2.33;;
12222;SDS011;6174;49.058;8.524;2022-08-21T05:14:48;3.37;;;2.50;;
12222;SDS011;6174;49.058;8.524;2022-08-21T05:17:15;4.43;;;2.70;;
12222;SDS011;6174;49.058;8.524;2022-08-21T05:19:41;5.73;;;2.90;;
12222;SDS011;6174;49.058;8.524;2022-08-21T05:22:08;5.77;;;2.80;;
12222;SDS011;6174;49.058;8.524;2022-08-21T05:24:37;3.30;;;2.97;;
12222;SDS011;6174;49.058;8.524;2022-08-21T05:27:04;4.47;;;3.03;;
12222;SDS011;6174;49.058;8.524;2022-08-21T05:29:31;3.67;;;2.93;;
12222;SDS011;6174;49.058;8.524;2022-08-21T05:31:59;7.30;;;3.17;;
12222;SDS011;6174;49.058;8.524;2022-08-21T05:34:26;5.07;;;2.57;;
12222;SDS011;6174;49.058;8.524;2022-08-21T05:36:53;6.90;;;3.00;;
12222;SDS011;6174;49.058;8.524;2022-08-21T05:39:19;4.97;;;2.60;;
12222;SDS011;6174;49.058;8.524;2022-08-21T05:41:48;4.07;;;2.37;;
12222;SDS011;6174;49.058;8.524;2022-08-21T05:44:14;5.73;;;2.53;;
12222;SDS011;6174;49.058;8.524;2022-08-21T05:46:41;3.07;;;2.40;;
12222;SDS011;6174;49.058;8.524;2022-08-21T05:49:08;3.63;;;2.50;;
12222;SDS011;6174;49.058;8.524;2022-08-21T05:51:35;4.77;;;2.80;;
12222;SDS011;6174;49.058;8.524;2022-08-21T05:54:02;3.10;;;2.80;;
12222;SDS011;6174;49.058;8.524;2022-08-21T05:56:28;3.93;;;2.60;;
12222;SDS011;6174;49.058;8.524;2022-08-21T05:58:57;3.67;;;2.70;;
12222;SDS011;6174;49.058;8.524;2022-08-21T06:01:24;5.30;;;2.40;;
12222;SDS011;6174;49.058;8.524;2022-08-21T06:03:51;3.67;;;2.90;;
12222;SDS011;6174;49.058;8.524;2022-08-21T06:06:18;4.13;;;2.60;;
12222;SDS011;6174;49.058;8.524;2022-08-21T06:08:45;3.97;;;2.37;;
12222;SDS011;6174;49.058;8.524;2022-08-21T06:11:12;5.23;;;2.37;;
12222;SDS011;6174;49.058;8.524;2022-08-21T06:13:38;3.90;;;2.57;;
12222;SDS011;6174;49.058;8.524;2022-08-21T06:16:08;3.50;;;2.33;;
12222;SDS011;6174;49.058;8.524;2022-08-21T06:18:37;3.10;;;2.50;;
12222;SDS011;6174;49.058;8.524;2022-08-21T06:21:05;5.27;;;2.57;;
12222;SDS011;6174;49.058;8.524;2022-08-21T06:23:33;3.90;;;2.43;;
12222;SDS011;6174;49.058;8.524;2022-08-21T06:26:01;3.60;;;2.50;;
12222;SDS011;6174;49.058;8.524;2022-08-21T06:28:29;3.33;;;2.60;;
12222;SDS011;6174;49.058;8.524;2022-08-21T06:30:56;2.83;;;2.33;;
12222;SDS011;6174;49.058;8.524;2022-08-21T06:33:24;4.13;;;2.60;;
12222;SDS011;6174;49.058;8.524;2022-08-21T06:35:51;3.77;;;2.33;;
12222;SDS011;6174;49.058;8.524;2022-08-21T06:38:18;3.00;;;2.20;;
12222;SDS011;6174;49.058;8.524;2022-08-21T06:40:45;3.33;;;2.57;;
12222;SDS011;6174;49.058;8.524;2022-08-21T06:43:12;3.77;;;2.80;;
12222;SDS011;6174;49.058;8.524;2022-08-21T06:45:41;3.30;;;2.40;;
12222;SDS011;6174;49.058;8.524;2022-08-21T06:48:08;3.00;;;2.70;;
12222;SDS011;6174;49.058;8.524;2022-08-21T06:50:36;4.03;;;2.43;;
12222;SDS011;6174;49.058;8.524;2022-08-21T06:53:04;3.60;;;2.30;;
12222;SDS011;6174;49.058;8.524;2022-08-21T06:55:33;4.00;;;2.70;;
12222;SDS011;6174;49.058;8.524;2022-08-21T06:58:00;3.00;;;2.53;;
12222;SDS011;6174;49.058;8.524;2022-08-21T07:00:27;3.00;;;2.60;;
12222;SDS011;6174;49.058;8.524;2022-08-21T07:02:54;3.80;;;2.50;;
12222;SDS011;6174;49.058;8.524;2022-08-21T07:05:21;4.23;;;2.60;;
12222;SDS011;6174;49.058;8.524;2022-08-21T07:07:49;4.77;;;2.70;;
12222;SDS011;6174;49.058;8.524;2022-08-21T07:10:16;5.73;;;2.90;;
12222;SDS011;6174;49.058;8.524;2022-08-21T07:12:42;4.70;;;2.53;;
12222;SDS011;6174;49.058;8.524;2022-08-21T07:15:09;4.73;;;2.87;;
12222;SDS011;6174;49.058;8.524;2022-08-21T07:17:36;4.00;;;2.50;;
12222;SDS011;6174;49.058;8.524;2022-08-21T07:20:04;3.93;;;2.37;;
12222;SDS011;6174;49.058;8.524;2022-08-21T07:22:32;3.97;;;2.70;;
12222;SDS011;6174;49.058;8.524;2022-08-21T07:25:02;4.87;;;2.90;;
12222;SDS011;6174;49.058;8.524;2022-08-21T07:27:30;4.20;;;2.53;;
12222;SDS011;6174;49.058;8.524;2022-08-21T07:29:56;4.47;;;2.60;;
12222;SDS011;6174;49.058;8.524;2022-08-21T07:32:23;3.10;;;2.30;;
12222;SDS011;6174;49.058;8.524;2022-08-21T07:34:51;4.50;;;2.80;;
12222;SDS011;6174;49.058;8.524;2022-08-21T07:37:17;3.47;;;3.07;;
12222;SDS011;6174;49.058;8.524;2022-08-21T07:39:44;3.80;;;2.70;;
12222;SDS011;6174;49.058;8.524;2022-08-21T07:42:15;3.57;;;2.73;;
12222;SDS011;6174;49.058;8.524;2022-08-21T07:44:42;4.77;;;2.70;;
12222;SDS011;6174;49.058;8.524;2022-08-21T07:47:09;4.63;;;2.73;;
12222;SDS011;6174;49.058;8.524;2022-08-21T07:49:36;3.67;;;2.70;;
12222;SDS011;6174;49.058;8.524;2022-08-21T07:52:03;4.33;;;2.50;;
12222;SDS011;6174;49.058;8.524;2022-08-21T07:54:30;6.70;;;3.10;;
12222;SDS011;6174;49.058;8.524;2022-08-21T07:56:56;4.10;;;2.70;;
12222;SDS011;6174;49.058;8.524;2022-08-21T07:59:25;4.70;;;2.90;;
12222;SDS011;6174;49.058;8.524;2022-08-21T08:01:51;4.53;;;2.60;;
12222;SDS011;6174;49.058;8.524;2022-08-21T08:04:18;4.10;;;2.60;;
12222;SDS011;6174;49.058;8.524;2022-08-21T08:06:45;4.73;;;2.63;;
12222;SDS011;6174;49.058;8.524;2022-08-21T08:09:12;4.37;;;2.90;;
12222;SDS011;6174;49.058;8.524;2022-08-21T08:11:38;3.03;;;2.50;;
12222;SDS011;6174;49.058;8.524;2022-08-21T08:14:08;4.47;;;2.73;;
12222;SDS011;6174;49.058;8.524;2022-08-21T08:16:37;4.30;;;3.00;;
12222;SDS011;6174;49.058;8.524;2022-08-21T08:19:04;4.23;;;2.70;;
12222;SDS011;6174;49.058;8.524;2022-08-21T08:21:31;5.97;;;3.20;;
12222;SDS011;6174;49.058;8.524;2022-08-21T08:23:58;6.40;;;2.97;;
12222;SDS011;6174;49.058;8.524;2022-08-21T08:26:25;4.77;;;3.10;;
12222;SDS011;6174;49.058;8.524;2022-08-21T08:28:52;4.00;;;2.50;;
12222;SDS011;6174;49.058;8.524;2022-08-21T08:31:19;5.53;;;2.80;;
12222;SDS011;6174;49.058;8.524;2022-08-21T08:33:47;6.83;;;2.80;;
12222;SDS011;6174;49.058;8.524;2022-08-21T08:36:14;3.43;;;2.90;;
12222;SDS011;6174;49.058;8.524;2022-08-21T08:38:43;4.70;;;2.87;;
12222;SDS011;6174;49.058;8.524;2022-08-21T08:41:12;4.07;;;2.80;;
12222;SDS011;6174;49.058;8.524;2022-08-21T08:43:42;3.87;;;3.03;;
12222;SDS011;6174;49.058;8.524;2022-08-21T08:46:15;7.43;;;2.80;;
12222;SDS011;6174;49.058;8.524;2022-08-21T08:48:46;5.43;;;3.20;;
12222;SDS011;6174;49.058;8.524;2022-08-21T08:51:20;7.63;;;3.23;;
12222;SDS011;6174;49.058;8.524;2022-08-21T08:53:51;5.30;;;3.10;;
12222;SDS011;6174;49.058;8.524;2022-08-21T08:56:22;4.07;;;2.87;;
12222;SDS011;6174;49.058;8.524;2022-08-21T08:58:53;5.77;;;3.13;;
12222;SDS011;6174;49.058;8.524;2022-08-21T09:01:25;5.77;;;2.97;;
12222;SDS011;6174;49.058;8.524;2022-08-21T09:03:53;6.57;;;3.07;;
12222;SDS011;6174;49.058;8.524;2022-08-21T09:06:24;5.00;;;2.83;;
12222;SDS011;6174;49.058;8.524;2022-08-21T09:09:04;4.37;;;3.00;;
12222;SDS011;6174;49.058;8.524;2022-08-21T09:12:02;6.33;;;3.73;;
12222;SDS011;6174;49.058;8.524;2022-08-21T09:14:45;6.30;;;3.10;;
12222;SDS011;6174;49.058;8.524;2022-08-21T09:17:27;4.07;;;2.70;;
12222;SDS011;6174;49.058;8.524;2022-08-21T09:20:10;4.77;;;2.63;;
12222;SDS011;6174;49.058;8.524;2022-08-21T09:22:45;3.30;;;3.00;;
12222;SDS011;6174;49.058;8.524;2022-08-21T09:25:22;4.93;;;2.40;;
12222;SDS011;6174;49.058;8.524;2022-08-21T09:28:41;6.10;;;3.10;;
12222;SDS011;6174;49.058;8.524;2022-08-21T09:31:26;5.33;;;3.10;;
12222;SDS011;6174;49.058;8.524;2022-08-21T09:38:22;4.67;;;2.90;;
12222;SDS011;6174;49.058;8.524;2022-08-21T09:41:14;4.87;;;2.90;;
12222;SDS011;6174;49.058;8.524;2022-08-21T09:43:51;5.67;;;2.83;;
12222;SDS011;6174;49.058;8.524;2022-08-21T09:46:20;6.93;;;2.70;;
12222;SDS011;6174;49.058;8.524;2022-08-21T09:48:49;4.57;;;2.60;;
12222;SDS011;6174;49.058;8.524;2022-08-21T09:51:19;4.30;;;2.77;;
12222;SDS011;6174;49.058;8.524;2022-08-21T09:53:50;4.75;;;2.90;;
12222;SDS011;6174;49.058;8.524;2022-08-21T09:56:22;3.33;;;2.60;;
12222;SDS011;6174;49.058;8.524;2022-08-21T09:59:15;6.32;;;3.13;;
12222;SDS011;6174;49.058;8.524;2022-08-21T10:01:45;5.80;;;3.00;;
12222;SDS011;6174;49.058;8.524;2022-08-21T10:04:14;4.03;;;2.70;;
12222;SDS011;6174;49.058;8.524;2022-08-21T10:06:41;5.82;;;3.25;;
12222;SDS011;6174;49.058;8.524;2022-08-21T10:09:10;5.65;;;3.20;;
12222;SDS011;6174;49.058;8.524;2022-08-21T10:11:39;4.30;;;2.85;;
12222;SDS011;6174;49.058;8.524;2022-08-21T10:14:12;5.63;;;3.20;;
12222;SDS011;6174;49.058;8.524;2022-08-21T10:16:47;5.30;;;2.92;;
12222;SDS011;6174;49.058;8.524;2022-08-21T10:19:23;5.03;;;2.78;;
12222;SDS011;6174;49.058;8.524;2022-08-21T10:22:07;5.78;;;3.00;;
12222;SDS011;6174;49.058;8.524;2022-08-21T10:24:50;6.32;;;3.17;;
12222;SDS011;6174;49.058;8.524;2022-08-21T10:27:30;4.88;;;3.10;;
12222;SDS011;6174;49.058;8.524;2022-08-21T10:30:07;4.80;;;2.67;;
12222;SDS011;6174;49.058;8.524;2022-08-21T10:32:51;3.72;;;3.17;;
12222;SDS011;6174;49.058;8.524;2022-08-21T10:35:27;3.30;;;2.90;;
12222;SDS011;6174;49.058;8.524;2022-08-21T10:41:08;4.45;;;2.70;;
12222;SDS011;6174;49.058;8.524;2022-08-21T10:43:45;4.18;;;2.67;;
12222;SDS011;6174;49.058;8.524;2022-08-21T10:46:20;4.57;;;3.10;;
12222;SDS011;6174;49.058;8.524;2022-08-21T10:48:56;5.00;;;2.90;;
12222;SDS011;6174;49.058;8.524;2022-08-21T10:51:26;6.90;;;2.90;;
12222;SDS011;6174;49.058;8.524;2022-08-21T10:54:01;3.50;;;2.60;;
12222;SDS011;6174;49.058;8.524;2022-08-21T10:56:35;4.70;;;2.78;;
12222;SDS011;6174;49.058;8.524;2022-08-21T10:59:09;3.83;;;2.67;;
12222;SDS011;6174;49.058;8.524;2022-08-21T11:01:52;4.53;;;3.00;;
12222;SDS011;6174;49.058;8.524;2022-08-21T11:04:24;3.95;;;3.00;;
12222;SDS011;6174;49.058;8.524;2022-08-21T11:06:57;4.38;;;2.90;;
12222;SDS011;6174;49.058;8.524;2022-08-21T11:09:27;6.78;;;3.38;;
12222;SDS011;6174;49.058;8.524;2022-08-21T11:11:57;5.07;;;2.83;;
12222;SDS011;6174;49.058;8.524;2022-08-21T11:14:31;6.15;;;2.92;;
12222;SDS011;6174;49.058;8.524;2022-08-21T11:17:06;6.13;;;3.15;;
12222;SDS011;6174;49.058;8.524;2022-08-21T11:19:35;3.50;;;2.75;;
12222;SDS011;6174;49.058;8.524;2022-08-21T11:22:10;4.85;;;2.90;;
12222;SDS011;6174;49.058;8.524;2022-08-21T11:24:42;6.82;;;3.17;;
12222;SDS011;6174;49.058;8.524;2022-08-21T11:27:17;4.97;;;3.08;;
12222;SDS011;6174;49.058;8.524;2022-08-21T11:29:47;4.47;;;3.03;;
12222;SDS011;6174;49.058;8.524;2022-08-21T11:32:24;3.78;;;2.60;;
12222;SDS011;6174;49.058;8.524;2022-08-21T11:34:59;4.22;;;3.17;;
12222;SDS011;6174;49.058;8.524;2022-08-21T11:37:43;3.97;;;2.90;;
12222;SDS011;6174;49.058;8.524;2022-08-21T11:40:24;4.65;;;3.15;;
12222;SDS011;6174;49.058;8.524;2022-08-21T11:43:09;5.75;;;2.78;;
12222;SDS011;6174;49.058;8.524;2022-08-21T11:45:43;4.47;;;3.13;;
12222;SDS011;6174;49.058;8.524;2022-08-21T11:48:22;4.82;;;3.20;;
12222;SDS011;6174;49.058;8.524;2022-08-21T11:50:56;4.50;;;3.00;;
12222;SDS011;6174;49.058;8.524;2022-08-21T11:53:26;3.75;;;2.80;;
12222;SDS011;6174;49.058;8.524;2022-08-21T11:56:00;5.95;;;2.78;;
12222;SDS011;6174;49.058;8.524;2022-08-21T11:58:35;4.38;;;2.90;;
12222;SDS011;6174;49.058;8.524;2022-08-21T12:01:06;3.38;;;2.88;;
12222;SDS011;6174;49.058;8.524;2022-08-21T12:03:35;3.78;;;2.70;;
12222;SDS011;6174;49.058;8.524;2022-08-21T12:06:07;3.50;;;2.45;;
12222;SDS011;6174;49.058;8.524;2022-08-21T12:08:36;5.10;;;2.70;;
12222;SDS011;6174;49.058;8.524;2022-08-21T12:11:05;3.97;;;2.72;;
12222;SDS011;6174;49.058;8.524;2022-08-21T12:13:36;4.03;;;2.80;;
12222;SDS011;6174;49.058;8.524;2022-08-21T12:16:04;4.43;;;2.83;;
12222;SDS011;6174;49.058;8.524;2022-08-21T12:18:33;5.53;;;2.90;;
12222;SDS011;6174;49.058;8.524;2022-08-21T12:21:04;3.72;;;3.08;;
12222;SDS011;6174;49.058;8.524;2022-08-21T12:23:44;6.15;;;2.97;;
12222;SDS011;6174;49.058;8.524;2022-08-21T12:26:19;4.85;;;2.80;;
12222;SDS011;6174;49.058;8.524;2022-08-21T12:28:51;3.85;;;3.20;;
12222;SDS011;6174;49.058;8.524;2022-08-21T12:31:36;3.33;;;2.88;;
12222;SDS011;6174;49.058;8.524;2022-08-21T12:34:15;4.00;;;2.72;;
12222;SDS011;6174;49.058;8.524;2022-08-21T12:36:43;4.50;;;2.80;;
12222;SDS011;6174;49.058;8.524;2022-08-21T12:39:15;6.57;;;3.08;;
12222;SDS011;6174;49.058;8.524;2022-08-21T12:41:49;4.28;;;2.92;;
12222;SDS011;6174;49.058;8.524;2022-08-21T12:44:22;5.53;;;3.03;;
12222;SDS011;6174;49.058;8.524;2022-08-21T12:46:54;5.05;;;3.05;;
12222;SDS011;6174;49.058;8.524;2022-08-21T12:49:25;3.78;;;2.92;;
12222;SDS011;6174;49.058;8.524;2022-08-21T12:51:56;4.55;;;3.13;;
12222;SDS011;6174;49.058;8.524;2022-08-21T12:54:28;4.50;;;2.90;;
12222;SDS011;6174;49.058;8.524;2022-08-21T12:57:00;5.45;;;3.00;;
12222;SDS011;6174;49.058;8.524;2022-08-21T12:59:30;7.60;;;2.72;;
12222;SDS011;6174;49.058;8.524;2022-08-21T13:01:58;4.57;;;2.72;;
12222;SDS011;6174;49.058;8.524;2022-08-21T13:04:32;4.88;;;2.72;;
12222;SDS011;6174;49.058;8.524;2022-08-21T13:07:04;6.88;;;3.08;;
12222;SDS011;6174;49.058;8.524;2022-08-21T13:09:35;3.70;;;2.60;;
12222;SDS011;6174;49.058;8.524;2022-08-21T13:12:07;2.78;;;2.55;;
12222;SDS011;6174;49.058;8.524;2022-08-21T13:14:37;3.80;;;2.80;;
12222;SDS011;6174;49.058;8.524;2022-08-21T13:17:06;4.68;;;2.67;;
12222;SDS011;6174;49.058;8.524;2022-08-21T13:19:34;4.78;;;2.80;;
12222;SDS011;6174;49.058;8.524;2022-08-21T13:22:01;4.80;;;2.80;;
12222;SDS011;6174;49.058;8.524;2022-08-21T13:24:29;4.50;;;2.95;;
12222;SDS011;6174;49.058;8.524;2022-08-21T13:26:57;4.00;;;2.70;;
12222;SDS011;6174;49.058;8.524;2022-08-21T13:29:27;5.05;;;2.80;;
12222;SDS011;6174;49.058;8.524;2022-08-21T13:31:57;4.25;;;2.80;;
12222;SDS011;6174;49.058;8.524;2022-08-21T13:34:28;5.47;;;2.88;;
12222;SDS011;6174;49.058;8.524;2022-08-21T13:36:57;6.38;;;2.90;;
12222;SDS011;6174;49.058;8.524;2022-08-21T13:39:26;3.80;;;2.50;;
12222;SDS011;6174;49.058;8.524;2022-08-21T13:41:54;4.82;;;2.85;;
12222;SDS011;6174;49.058;8.524;2022-08-21T13:44:23;3.35;;;2.40;;
12222;SDS011;6174;49.058;8.524;2022-08-21T13:47:00;3.35;;;2.67;;
12222;SDS011;6174;49.058;8.524;2022-08-21T13:49:31;4.47;;;2.38;;
12222;SDS011;6174;49.058;8.524;2022-08-21T13:52:00;3.45;;;2.53;;
12222;SDS011;6174;49.058;8.524;2022-08-21T13:54:31;4.72;;;2.80;;
12222;SDS011;6174;49.058;8.524;2022-08-21T13:57:00;4.20;;;2.30;;
12222;SDS011;6174;49.058;8.524;2022-08-21T13:59:28;3.15;;;2.58;;
12222;SDS011;6174;49.058;8.524;2022-08-21T14:02:00;5.18;;;2.58;;
12222;SDS011;6174;49.058;8.524;2022-08-21T14:04:35;2.72;;;2.30;;
12222;SDS011;6174;49.058;8.524;2022-08-21T14:07:14;5.22;;;2.30;;
12222;SDS011;6174;49.058;8.524;2022-08-21T14:09:44;3.75;;;2.83;;
12222;SDS011;6174;49.058;8.524;2022-08-21T14:12:12;2.50;;;2.20;;
12222;SDS011;6174;49.058;8.524;2022-08-21T14:14:41;3.50;;;2.80;;
12222;SDS011;6174;49.058;8.524;2022-08-21T14:17:11;3.08;;;2.35;;
12222;SDS011;6174;49.058;8.524;2022-08-21T14:19:51;3.85;;;2.95;;
12222;SDS011;6174;49.058;8.524;2022-08-21T14:22:22;4.32;;;2.40;;
12222;SDS011;6174;49.058;8.524;2022-08-21T14:24:58;2.95;;;2.70;;
12222;SDS011;6174;49.058;8.524;2022-08-21T14:27:28;3.15;;;2.60;;
12222;SDS011;6174;49.058;8.524;2022-08-21T14:29:57;3.08;;;2.30;;
12222;SDS011;6174;49.058;8.524;2022-08-21T14:32:28;3.10;;;2.50;;
12222;SDS011;6174;49.058;8.524;2022-08-21T14:35:02;2.58;;;2.35;;
12222;SDS011;6174;49.058;8.524;2022-08-21T14:37:29;2.80;;;2.50;;
12222;SDS011;6174;49.058;8.524;2022-08-21T14:39:56;4.45;;;2.50;;
12222;SDS011;6174;49.058;8.524;2022-08-21T14:42:23;2.95;;;2.28;;
12222;SDS011;6174;49.058;8.524;2022-08-21T14:44:50;3.90;;;2.30;;
12222;SDS011;6174;49.058;8.524;2022-08-21T14:47:19;3.22;;;2.78;;
12222;SDS011;6174;49.058;8.524;2022-08-21T14:49:48;3.78;;;2.58;;
12222;SDS011;6174;49.058;8.524;2022-08-21T14:52:15;3.28;;;2.38;;
12222;SDS011;6174;49.058;8.524;2022-08-21T14:54:42;5.28;;;2.70;;
12222;SDS011;6174;49.058;8.524;2022-08-21T14:57:10;3.28;;;2.47;;
12222;SDS011;6174;49.058;8.524;2022-08-21T14:59:38;4.05;;;2.47;;
12222;SDS011;6174;49.058;8.524;2022-08-21T15:02:06;2.70;;;2.22;;
12222;SDS011;6174;49.058;8.524;2022-08-21T15:04:34;3.55;;;2.60;;
12222;SDS011;6174;49.058;8.524;2022-08-21T15:07:02;4.45;;;2.50;;
12222;SDS011;6174;49.058;8.524;2022-08-21T15:09:29;4.20;;;2.35;;
12222;SDS011;6174;49.058;8.524;2022-08-21T15:11:57;3.40;;;2.40;;
12222;SDS011;6174;49.058;8.524;2022-08-21T15:14:27;3.22;;;2.42;;
12222;SDS011;6174;49.058;8.524;2022-08-21T15:16:56;4.28;;;2.58;;
12222;SDS011;6174;49.058;8.524;2022-08-21T15:19:23;4.00;;;2.50;;
12222;SDS011;6174;49.058;8.524;2022-08-21T15:21:51;3.05;;;2.60;;
12222;SDS011;6174;49.058;8.524;2022-08-21T15:24:19;4.07;;;2.40;;